Time;durP1;ratioP1;P1;durP2;ratioP2;P2;SDS_P1;SDS_P2;PMS_P1;PMS_P2;Temp;Humidity;BMP_temperature;BMP_pressure;BME280_temperature;BME280_humidity;BME280_pressure;Samples;Min_cycle;Max_cycle;Signal;HPM_P1;HPM_P2
2021/05/28 00:00:20;;;;;;;5.00;4.30;;;;;;;7.74;72.54;100352.23;2240568;78;21055;-72
2021/05/28 00:03:21;;;;;;;6.55;4.37;;;;;;;7.68;72.56;100352.32;2235042;78;21840;-77
2021/05/28 00:06:22;;;;;;;4.90;4.05;;;;;;;7.64;72.72;100346.50;2238419;78;21023;-73
2021/05/28 00:09:24;;;;;;;7.05;5.05;;;;;;;7.61;72.87;100351.23;2169063;80;21096;-73
2021/05/28 00:12:29;;;;;;;6.87;4.85;;;;;;;7.60;72.82;100357.02;2216710;78;21525;-76
2021/05/28 00:15:32;;;;;;;10.72;6.30;;;;;;;7.56;72.43;100360.89;2215942;78;20991;-79
2021/05/28 00:18:33;;;;;;;8.85;5.30;;;;;;;7.57;72.65;100369.64;2213621;78;21566;-80
2021/05/28 00:21:35;;;;;;;;;;;;;;;7.55;72.65;100368.48;2218404;78;20979;-77
2021/05/28 00:24:36;;;;;;;;;;;;;;;7.55;72.72;100376.89;2215862;78;20165;-73
2021/05/28 00:27:37;;;;;;;5.90;4.00;;;;;;;7.50;72.74;100372.03;2213447;78;20489;-72
2021/05/28 00:30:38;;;;;;;7.20;4.55;;;;;;;7.47;72.71;100368.84;2209770;78;21003;-72
2021/05/28 00:33:40;;;;;;;5.58;3.90;;;;;;;7.49;72.60;100378.30;2215876;78;21011;-72
2021/05/28 00:36:41;;;;;;;6.35;4.95;;;;;;;7.50;72.56;100383.91;2218026;78;21073;-89
2021/05/28 00:39:42;;;;;;;7.20;4.33;;;;;;;7.50;72.63;100373.34;2212234;78;21006;-73
2021/05/28 00:42:43;;;;;;;5.67;4.45;;;;;;;7.52;72.72;100378.50;2213033;78;21917;-81
2021/05/28 00:45:44;;;;;;;6.92;4.78;;;;;;;7.51;72.55;100381.60;2212973;78;21062;-72
2021/05/28 00:48:48;;;;;;;8.15;4.30;;;;;;;7.45;72.44;100379.53;2211191;78;21070;-73
2021/05/28 00:51:49;;;;;;;7.20;4.40;;;;;;;7.38;72.40;100379.27;2211663;78;21054;-76
2021/05/28 00:54:51;;;;;;;14.03;5.58;;;;;;;7.36;72.38;100377.73;2212555;78;21007;-73
2021/05/28 00:57:54;;;;;;;11.20;4.97;;;;;;;7.34;72.65;100378.35;2215618;79;21074;-86
2021/05/28 01:00:56;;;;;;;17.05;6.10;;;;;;;7.32;72.61;100381.61;2216856;78;21094;-75
2021/05/28 01:03:59;;;;;;;24.15;9.45;;;;;;;7.30;72.58;100384.41;2237819;78;21039;-74
2021/05/28 01:07:00;;;;;;;27.65;12.37;;;;;;;7.36;73.01;100379.05;2237722;78;21022;-72
2021/05/28 01:10:03;;;;;;;28.10;13.98;;;;;;;7.39;73.15;100386.69;2265254;77;21043;-73
2021/05/28 01:13:07;;;;;;;19.48;8.25;;;;;;;7.44;73.02;100379.69;2238364;78;21058;-72
2021/05/28 01:16:08;;;;;;;16.12;7.33;;;;;;;7.45;72.91;100379.53;2236686;78;21572;-73
2021/05/28 01:19:09;;;;;;;12.43;6.85;;;;;;;7.42;72.82;100377.17;2240542;78;21035;-77
2021/05/28 01:22:10;;;;;;;10.10;5.45;;;;;;;7.38;72.81;100379.27;2240089;78;21049;-72
2021/05/28 01:25:13;;;;;;;13.75;5.33;;;;;;;7.38;72.94;100377.12;2241601;77;21553;-72
2021/05/28 01:28:14;;;;;;;9.15;5.20;;;;;;;7.38;72.98;100375.30;2252493;77;21532;-73
2021/05/28 01:31:16;;;;;;;7.72;4.83;;;;;;;7.38;72.96;100373.98;2274008;77;21059;-85
2021/05/28 01:34:17;;;;;;;7.92;5.12;;;;;;;7.39;72.90;100370.85;2276218;77;21525;-73
2021/05/28 01:37:18;;;;;;;7.42;4.83;;;;;;;7.39;72.82;100374.81;2273735;77;21579;-73
2021/05/28 01:40:21;;;;;;;7.37;5.50;;;;;;;7.39;72.91;100374.81;2275251;77;21147;-74
2021/05/28 01:43:23;;;;;;;8.28;5.58;;;;;;;7.42;72.94;100374.53;2272427;77;21035;-78
2021/05/28 01:46:25;;;;;;;7.00;5.30;;;;;;;7.42;73.13;100383.77;2270535;77;21059;-73
2021/05/28 01:49:26;;;;;;;7.90;5.62;;;;;;;7.46;73.29;100382.53;2237051;78;21062;-88
2021/05/28 01:52:27;;;;;;;8.78;5.55;;;;;;;7.46;73.24;100380.36;2271307;77;21046;-77
2021/05/28 01:55:30;;;;;;;7.37;5.45;;;;;;;7.48;73.32;100374.45;2219981;79;21936;-73
2021/05/28 01:58:31;;;;;;;7.00;4.80;;;;;;;7.50;73.18;100373.84;2239123;78;21310;-73
2021/05/28 02:01:33;;;;;;;8.03;4.85;;;;;;;7.50;73.11;100377.31;2218682;78;21110;-80
2021/05/28 02:04:34;;;;;;;10.85;5.85;;;;;;;7.50;73.18;100384.40;2189852;79;21037;-75
2021/05/28 02:07:37;;;;;;;10.40;5.25;;;;;;;7.53;73.22;100383.63;2187445;79;21030;-74
2021/05/28 02:10:39;;;;;;;10.13;5.40;;;;;;;7.54;72.99;100380.49;2190401;79;21234;-73
2021/05/28 02:13:40;;;;;;;8.20;5.90;;;;;;;7.49;72.86;100381.39;2190419;79;20994;-73
2021/05/28 02:16:42;;;;;;;8.73;5.05;;;;;;;7.41;72.96;100386.08;2191767;79;21067;-73
2021/05/28 02:19:43;;;;;;;6.78;5.30;;;;;;;7.36;73.06;100386.98;2194910;79;21126;-72
2021/05/28 02:22:44;;;;;;;7.08;4.80;;;;;;;7.32;72.92;100390.39;2171826;80;21055;-84
2021/05/28 02:25:45;;;;;;;7.35;5.15;;;;;;;7.24;72.87;100384.14;2198471;79;21102;-72
2021/05/28 02:28:47;;;;;;;7.97;4.55;;;;;;;7.19;72.96;100389.33;2190025;80;21111;-75
2021/05/28 02:31:48;;;;;;;6.83;5.47;;;;;;;7.16;73.07;100388.29;2215670;78;21013;-77
2021/05/28 02:34:49;;;;;;;7.72;5.37;;;;;;;7.16;73.00;100400.66;2192205;79;21113;-73
2021/05/28 02:37:50;;;;;;;8.68;5.70;;;;;;;7.11;72.96;100411.61;2190457;79;21090;-75
2021/05/28 02:40:51;;;;;;;;;;;;;;;7.05;73.08;100412.16;2195236;79;21033;-73
2021/05/28 02:43:52;;;;;;;8.58;5.87;;;;;;;6.99;73.45;100411.40;2190641;79;20481;-75
2021/05/28 02:46:54;;;;;;;9.50;5.92;;;;;;;6.99;73.56;100409.25;2186163;79;21047;-79
2021/05/28 02:49:55;;;;;;;9.20;5.45;;;;;;;7.00;73.75;100406.46;2187421;79;21110;-87
2021/05/28 02:52:56;;;;;;;7.17;5.67;;;;;;;7.04;73.82;100408.33;2186923;79;21076;-74
2021/05/28 02:55:57;;;;;;;;;;;;;;;7.07;73.98;100410.23;2193602;79;21550;-86
2021/05/28 02:58:58;;;;;;;11.28;5.35;;;;;;;7.10;74.15;100411.27;2187113;79;20280;-73
2021/05/28 03:02:01;;;;;;;7.42;5.60;;;;;;;7.14;74.26;100415.30;2195163;79;21105;-74
2021/05/28 03:05:04;;;;;;;7.67;5.50;;;;;;;7.23;74.35;100416.77;2194266;79;21038;-77
2021/05/28 03:08:05;;;;;;;7.53;5.70;;;;;;;7.31;74.35;100418.23;2195308;79;20991;-73
2021/05/28 03:11:06;;;;;;;9.03;6.33;;;;;;;7.38;74.41;100414.91;2193700;79;21546;-74
2021/05/28 03:14:08;;;;;;;7.33;5.62;;;;;;;7.44;74.49;100420.12;2195157;79;21062;-74
2021/05/28 03:17:09;;;;;;;9.43;5.40;;;;;;;7.50;74.63;100413.45;2195972;79;21007;-73
2021/05/28 03:20:24;;;;;;;10.10;6.20;;;;;;;7.56;74.78;100416.34;2194353;79;21011;-78
2021/05/28 03:23:21;;;;;;;7.95;5.83;;;;;;;7.62;74.89;100413.14;2194338;79;21048;-73
2021/05/28 03:26:24;;;;;;;11.55;6.35;;;;;;;7.68;74.84;100417.03;2182255;80;21809;-73
2021/05/28 03:29:25;;;;;;;7.75;4.92;;;;;;;7.78;75.06;100421.00;2191970;79;21093;-85
2021/05/28 03:32:26;;;;;;;6.03;4.95;;;;;;;7.86;75.17;100417.98;2182736;79;21340;-73
2021/05/28 03:35:27;;;;;;;7.42;4.75;;;;;;;7.97;75.20;100416.14;2192699;79;20979;-91
2021/05/28 03:38:29;;;;;;;6.80;4.70;;;;;;;8.07;75.25;100416.97;2194130;79;20975;-76
2021/05/28 03:41:30;;;;;;;9.30;5.97;;;;;;;8.19;75.29;100421.59;2194186;79;21043;-73
2021/05/28 03:44:33;;;;;;;6.95;5.55;;;;;;;8.28;75.22;100423.39;2191347;79;21387;-73
2021/05/28 03:47:36;;;;;;;6.78;5.25;;;;;;;8.34;75.24;100421.48;2226624;78;21057;-91
2021/05/28 03:50:38;;;;;;;8.00;5.22;;;;;;;8.42;75.12;100429.55;2226075;78;21060;-77
2021/05/28 03:53:39;;;;;;;6.75;5.08;;;;;;;8.48;75.20;100431.62;2224878;78;21069;-72
2021/05/28 03:56:40;;;;;;;7.12;5.37;;;;;;;8.50;75.27;100430.13;2190655;79;21734;-81
2021/05/28 03:59:41;;;;;;;7.25;4.70;;;;;;;8.53;75.42;100432.02;2189355;79;21050;-77
2021/05/28 04:02:42;;;;;;;;;;;;;;;8.60;75.38;100431.42;2220097;78;21067;-78
2021/05/28 04:05:43;;;;;;;6.47;5.30;;;;;;;8.65;75.33;100434.48;2270058;77;20182;-78
2021/05/28 04:08:44;;;;;;;;;;;;;;;8.72;75.34;100431.07;2272236;77;21110;-71
2021/05/28 04:11:45;;;;;;;7.75;5.42;;;;;;;8.78;75.29;100437.59;2272459;77;20302;-80
2021/05/28 04:14:46;;;;;;;7.12;5.37;;;;;;;8.83;75.29;100436.66;2268521;77;21006;-72
2021/05/28 04:17:47;;;;;;;;;;;;;;;8.83;75.21;100427.40;2268968;77;21570;-73
2021/05/28 04:20:48;;;;;;;8.83;6.28;;;;;;;8.85;75.30;100427.27;2272157;77;20186;-74
2021/05/28 04:23:49;;;;;;;11.22;6.37;;;;;;;8.88;75.44;100426.97;2269044;77;21136;-71
2021/05/28 04:26:50;;;;;;;9.33;5.70;;;;;;;8.88;75.40;100429.61;2272016;77;20993;-73
2021/05/28 04:29:52;;;;;;;6.65;5.00;;;;;;;8.92;75.50;100431.80;2270578;77;21553;-71
2021/05/28 04:32:53;;;;;;;9.48;5.53;;;;;;;8.97;75.53;100428.22;2263971;77;21613;-73
2021/05/28 04:35:55;;;;;;;11.38;5.85;;;;;;;9.08;75.63;100433.80;2266252;77;21061;-77
2021/05/28 04:38:56;;;;;;;7.75;6.33;;;;;;;9.17;75.65;100434.71;2271768;77;21187;-77
2021/05/28 04:41:58;;;;;;;9.35;5.37;;;;;;;9.31;75.76;100435.52;2269406;77;21125;-71
2021/05/28 04:44:59;;;;;;;7.70;5.42;;;;;;;9.43;75.71;100435.66;2264908;77;21519;-76
2021/05/28 04:48:00;;;;;;;;;;;;;;;9.54;75.58;100435.06;2267423;77;21007;-73
2021/05/28 04:51:02;;;;;;;7.08;6.30;;;;;;;9.62;75.52;100431.16;2240646;78;20169;-79
2021/05/28 04:54:07;;;;;;;8.75;6.28;;;;;;;9.73;75.33;100439.37;2238088;78;21062;-73
2021/05/28 04:57:08;;;;;;;6.40;5.70;;;;;;;9.77;75.22;100438.92;2238978;78;21526;-75
2021/05/28 05:00:11;;;;;;;8.18;5.67;;;;;;;9.84;75.14;100444.42;2240606;78;21578;-86
2021/05/28 05:03:12;;;;;;;7.90;5.55;;;;;;;9.86;75.12;100441.14;2227257;78;21161;-75
2021/05/28 05:06:13;;;;;;;10.30;5.95;;;;;;;9.88;75.00;100441.80;2215174;79;21042;-74
2021/05/28 05:09:14;;;;;;;8.00;5.45;;;;;;;9.90;75.10;100448.28;2216236;79;21101;-72
2021/05/28 05:12:15;;;;;;;;;;;;;;;9.93;75.06;100446.14;2222000;78;21055;-75
2021/05/28 05:15:16;;;;;;;9.50;5.60;;;;;;;9.99;75.09;100448.67;2215522;78;20216;-80
2021/05/28 05:18:18;;;;;;;7.17;5.80;;;;;;;9.99;74.99;100449.50;2211915;78;21098;-73
2021/05/28 05:21:19;;;;;;;8.28;6.20;;;;;;;10.04;75.04;100454.34;2217355;78;20983;-72
2021/05/28 05:24:20;;;;;;;7.87;5.92;;;;;;;10.02;74.85;100452.34;2215029;79;21106;-83
2021/05/28 05:27:23;;;;;;;10.45;5.90;;;;;;;9.98;74.92;100454.47;2216827;79;21025;-72
2021/05/28 05:30:25;;;;;;;9.53;5.70;;;;;;;9.98;74.91;100454.97;2218541;79;21050;-71
2021/05/28 05:33:26;;;;;;;8.58;5.83;;;;;;;9.97;74.98;100461.27;2218644;79;21026;-83
2021/05/28 05:36:27;;;;;;;6.33;5.53;;;;;;;9.97;75.09;100463.92;2218610;79;21086;-70
2021/05/28 05:39:31;;;;;;;11.60;5.62;;;;;;;10.02;75.24;100461.61;2219871;79;20999;-71
2021/05/28 05:42:36;;;;;;;9.00;5.45;;;;;;;10.11;75.28;100464.69;2221195;79;21014;-75
2021/05/28 05:45:38;;;;;;;6.03;5.42;;;;;;;10.21;75.26;100465.39;2219330;79;21554;-73
2021/05/28 05:48:39;;;;;;;6.25;5.58;;;;;;;10.35;75.44;100461.38;2221070;79;21038;-77
2021/05/28 05:51:41;;;;;;;8.73;6.05;;;;;;;10.48;75.51;100471.58;2218027;78;21046;-72
2021/05/28 05:54:42;;;;;;;10.75;6.83;;;;;;;10.63;75.32;100477.11;2214792;79;21056;-72
2021/05/28 05:57:43;;;;;;;8.43;6.47;;;;;;;10.79;75.38;100477.20;2217785;78;21916;-72
2021/05/28 06:00:44;;;;;;;7.70;6.37;;;;;;;10.97;75.23;100482.41;2217121;79;21553;-72
2021/05/28 06:03:46;;;;;;;7.37;6.67;;;;;;;11.17;75.14;100485.62;2231614;78;21121;-74
2021/05/28 06:06:47;;;;;;;9.78;6.17;;;;;;;11.32;75.06;100482.69;2238212;78;21006;-72
2021/05/28 06:09:48;;;;;;;8.75;6.42;;;;;;;11.50;74.84;100485.20;2244045;78;21214;-72
2021/05/28 06:12:50;;;;;;;7.33;5.75;;;;;;;11.65;74.59;100490.69;2236011;78;21463;-73
2021/05/28 06:15:51;;;;;;;7.92;7.10;;;;;;;11.72;74.15;100491.71;2233902;78;21114;-73
2021/05/28 06:18:53;;;;;;;8.18;6.25;;;;;;;11.87;74.17;100493.23;2236657;78;21058;-74
2021/05/28 06:21:56;;;;;;;9.00;6.97;;;;;;;11.87;73.70;100491.91;2235233;78;21078;-78
2021/05/28 06:24:58;;;;;;;8.38;6.25;;;;;;;11.94;73.77;100497.38;2236809;78;21069;-86
2021/05/28 06:27:59;;;;;;;6.10;5.45;;;;;;;12.04;73.45;100496.22;2236773;78;21053;-72
2021/05/28 06:31:00;;;;;;;8.48;5.45;;;;;;;12.04;73.34;100496.22;2239186;78;21089;-72
2021/05/28 06:34:03;;;;;;;6.37;5.60;;;;;;;11.98;73.12;100504.87;2237056;78;21097;-72
2021/05/28 06:37:04;;;;;;;12.33;6.30;;;;;;;11.95;72.95;100507.86;2241086;78;21566;-75
2021/05/28 06:40:11;;;;;;;8.73;5.00;;;;;;;11.85;73.08;100508.48;2235793;78;21117;-79
2021/05/28 06:43:12;;;;;;;9.30;6.22;;;;;;;11.85;72.86;100499.17;2234548;78;22292;-86
2021/05/28 06:46:13;;;;;;;7.30;5.60;;;;;;;11.85;73.13;100508.48;2241920;78;21105;-75
2021/05/28 06:49:14;;;;;;;6.50;5.42;;;;;;;11.97;73.14;100507.20;2238722;78;21017;-73
2021/05/28 06:52:15;;;;;;;7.03;5.62;;;;;;;12.14;72.93;100505.88;2238568;78;21034;-75
2021/05/28 06:55:17;;;;;;;6.87;5.85;;;;;;;12.32;72.74;100510.50;2242030;78;20979;-73
2021/05/28 06:58:20;;;;;;;9.33;6.40;;;;;;;12.44;72.50;100505.15;2231111;78;21071;-73
2021/05/28 07:01:21;;;;;;;8.85;6.60;;;;;;;12.58;72.37;100504.95;2241149;78;21565;-75
2021/05/28 07:04:23;;;;;;;9.63;6.25;;;;;;;12.71;71.91;100508.42;2237971;78;21007;-73
2021/05/28 07:07:25;;;;;;;7.78;5.97;;;;;;;12.71;71.65;100508.42;2237862;78;21504;-74
2021/05/28 07:10:26;;;;;;;8.45;5.50;;;;;;;12.86;71.66;100499.22;2241851;78;21058;-72
2021/05/28 07:13:28;;;;;;;6.37;5.45;;;;;;;13.01;71.05;100509.49;2237461;78;21600;-74
2021/05/28 07:16:29;;;;;;;8.40;5.90;;;;;;;13.09;70.37;100504.13;2237000;78;21071;-84
2021/05/28 07:19:31;;;;;;;6.83;5.83;;;;;;;13.55;70.61;100500.73;2240245;78;21026;-74
2021/05/28 07:22:33;;;;;;;9.35;6.33;;;;;;;14.36;70.38;100496.58;2240934;78;20996;-82
2021/05/28 07:25:35;;;;;;;6.10;5.28;;;;;;;15.06;69.10;100501.95;2236433;78;21617;-74
2021/05/28 07:28:41;;;;;;;10.98;6.33;;;;;;;15.54;67.20;100504.16;2233602;78;20976;-74
2021/05/28 07:31:43;;;;;;;7.67;5.10;;;;;;;15.49;66.39;100500.73;2217402;79;21027;-73
2021/05/28 07:34:45;;;;;;;5.80;5.30;;;;;;;15.44;65.72;100499.95;2238966;78;21206;-73
2021/05/28 07:37:46;;;;;;;6.75;4.83;;;;;;;15.41;65.70;100508.34;2237655;78;21569;-80
2021/05/28 07:40:47;;;;;;;6.03;4.72;;;;;;;16.03;65.39;100505.59;2233951;78;20994;-73
2021/05/28 07:43:48;;;;;;;5.37;4.87;;;;;;;16.25;64.16;100498.88;2238600;78;21039;-75
2021/05/28 07:46:50;;;;;;;7.83;5.17;;;;;;;16.24;64.52;100498.02;2234988;78;21050;-74
2021/05/28 07:49:51;;;;;;;6.30;4.53;;;;;;;16.18;63.54;100503.34;2239545;78;20989;-73
2021/05/28 07:52:53;;;;;;;4.75;4.22;;;;;;;15.81;63.00;100495.92;2234573;78;21019;-74
2021/05/28 07:56:00;;;;;;;5.35;4.17;;;;;;;15.43;62.39;100494.29;2207193;78;20983;-74
2021/05/28 07:59:02;;;;;;;4.90;4.28;;;;;;;15.14;62.68;100499.70;2239269;78;21537;-79
2021/05/28 08:02:03;;;;;;;5.67;4.20;;;;;;;14.91;63.18;100498.48;2239473;78;21062;-77
2021/05/28 08:05:06;;;;;;;4.30;3.90;;;;;;;15.13;63.92;100489.52;2241192;78;21023;-79
2021/05/28 08:08:11;;;;;;;6.83;3.83;;;;;;;15.68;63.13;100485.91;2237421;78;21022;-78
2021/05/28 08:11:12;;;;;;;4.03;3.42;;;;;;;16.24;62.71;100477.13;2239256;78;21113;-77
2021/05/28 08:14:13;;;;;;;4.58;4.22;;;;;;;16.90;62.19;100479.41;2239794;78;21017;-80
2021/05/28 08:17:14;;;;;;;4.25;3.95;;;;;;;17.41;61.18;100474.42;2244790;78;21590;-77
2021/05/28 08:20:17;;;;;;;4.22;3.90;;;;;;;17.47;60.58;100475.47;2234142;78;21568;-77
2021/05/28 08:23:18;;;;;;;4.62;4.17;;;;;;;17.62;60.19;100471.25;2278207;76;21014;-79
2021/05/28 08:26:19;;;;;;;5.97;3.60;;;;;;;17.76;58.59;100472.92;2247948;78;21627;-82
2021/05/28 08:29:20;;;;;;;3.65;2.95;;;;;;;17.21;57.20;100469.53;2244152;78;21008;-78
2021/05/28 08:32:21;;;;;;;3.65;3.35;;;;;;;16.67;57.60;100483.19;2243004;78;22419;-76
2021/05/28 08:35:23;;;;;;;4.25;3.50;;;;;;;16.23;58.04;100483.52;2243000;78;21004;-76
2021/05/28 08:38:24;;;;;;;4.53;3.15;;;;;;;15.72;58.98;100489.05;2244699;78;21524;-76
2021/05/28 08:41:27;;;;;;;3.98;3.58;;;;;;;15.12;59.80;100491.88;2242774;78;21021;-77
2021/05/28 08:44:28;;;;;;;3.98;3.50;;;;;;;14.71;60.89;100496.89;2241974;78;21065;-76
2021/05/28 08:47:30;;;;;;;3.25;2.75;;;;;;;14.51;61.75;100497.91;2240098;78;21706;-74
2021/05/28 08:50:32;;;;;;;2.25;2.08;;;;;;;14.51;61.69;100497.41;2241953;78;21597;-83
2021/05/28 08:53:34;;;;;;;3.02;1.90;;;;;;;14.57;61.28;100499.88;2245694;78;21138;-78
2021/05/28 08:56:36;;;;;;;2.65;2.20;;;;;;;15.02;61.45;100494.83;2243399;78;21572;-77
2021/05/28 08:59:41;;;;;;;2.60;2.40;;;;;;;15.16;60.82;100493.66;2242929;78;21667;-77
2021/05/28 09:02:42;;;;;;;2.98;1.95;;;;;;;15.15;60.80;100488.83;2245756;78;21147;-78
2021/05/28 09:05:44;;;;;;;3.92;2.62;;;;;;;15.06;60.09;100489.94;2243385;77;21055;-86
2021/05/28 09:08:45;;;;;;;2.77;2.37;;;;;;;15.16;60.87;100491.81;2248135;77;21912;-83
2021/05/28 09:11:57;;;;;;;2.30;1.77;;;;;;;15.59;60.55;100483.84;2250557;77;21008;-77
2021/05/28 09:14:58;;;;;;;3.47;2.55;;;;;;;16.31;59.67;100486.05;2252037;77;21091;-77
2021/05/28 09:18:06;;;;;;;3.55;3.15;;;;;;;16.91;59.37;100479.71;2248540;77;21557;-77
2021/05/28 09:21:12;;;;;;;3.75;3.45;;;;;;;17.43;58.45;100476.91;2247121;77;21115;-76
2021/05/28 09:24:31;;;;;;;6.70;3.12;;;;;;;17.35;57.37;100471.22;2246603;77;21085;-75
2021/05/28 09:27:35;;;;;;;3.00;2.70;;;;;;;17.04;57.16;100475.76;2246417;77;20982;-75
2021/05/28 09:30:36;;;;;;;3.12;2.83;;;;;;;16.58;57.27;100474.48;2253139;77;21073;-74
2021/05/28 09:33:41;;;;;;;3.83;2.35;;;;;;;16.29;57.64;100482.20;2247596;77;22141;-73
2021/05/28 09:36:42;;;;;;;8.43;2.20;;;;;;;15.78;57.60;100488.28;2247824;77;21055;-74
2021/05/28 09:39:44;;;;;;;2.45;1.25;;;;;;;15.34;58.68;100501.27;2211560;78;21960;-79
2021/05/28 09:42:57;;;;;;;1.60;1.50;;;;;;;15.14;58.85;100501.86;2211042;79;21384;-73
2021/05/28 09:45:59;;;;;;;1.90;1.80;;;;;;;14.93;59.43;100498.63;2233969;78;21396;-74
2021/05/28 09:49:12;;;;;;;2.33;2.12;;;;;;;14.85;59.90;100500.06;2237423;78;21553;-74
2021/05/28 09:52:24;;;;;;;2.87;2.55;;;;;;;14.88;60.20;100502.88;2200501;79;21057;-74
2021/05/28 09:55:33;;;;;;;2.47;2.27;;;;;;;14.94;60.48;100502.95;2233968;78;21039;-82
2021/05/28 09:59:01;;;;;;;3.08;2.50;;;;;;;15.06;60.84;100495.28;2236326;78;21085;-74
2021/05/28 10:02:02;;;;;;;3.40;2.92;;;;;;;15.33;61.03;100491.59;2210950;79;21093;-74
2021/05/28 10:05:05;;;;;;;4.40;3.40;;;;;;;15.63;60.81;100487.81;2236902;78;21062;-75
2021/05/28 10:08:09;;;;;;;3.87;2.70;;;;;;;15.78;59.23;100492.30;2224098;78;20992;-75
2021/05/28 10:11:13;;;;;;;3.83;3.15;;;;;;;15.87;59.79;100486.61;2215592;78;21847;-77
2021/05/28 10:14:14;;;;;;;4.05;3.60;;;;;;;15.95;58.67;100485.66;2227277;78;21101;-74
2021/05/28 10:17:20;;;;;;;4.00;3.70;;;;;;;15.96;59.73;100481.13;2223664;78;21066;-74
2021/05/28 10:20:21;;;;;;;5.30;3.72;;;;;;;16.07;59.99;100482.76;2211122;79;21121;-74
2021/05/28 10:23:23;;;;;;;4.45;3.37;;;;;;;16.16;59.93;100478.60;2248735;77;20998;-75
2021/05/28 10:26:34;;;;;;;4.25;3.22;;;;;;;16.12;59.28;100469.62;2234005;78;21081;-78
2021/05/28 10:29:36;;;;;;;4.33;2.62;;;;;;;16.08;58.97;100471.56;2202335;79;21118;-75
2021/05/28 10:32:38;;;;;;;4.50;2.27;;;;;;;16.10;59.24;100477.53;2204977;79;20986;-74
2021/05/28 10:35:46;;;;;;;1.62;1.47;;;;;;;16.08;58.58;100486.29;2234860;78;21075;-76
2021/05/28 10:38:51;;;;;;;1.70;1.30;;;;;;;15.91;57.61;100485.22;2224363;78;21158;-70
2021/05/28 10:41:56;;;;;;;1.10;0.90;;;;;;;15.82;56.96;100481.52;2219546;78;21003;-73
2021/05/28 10:44:57;;;;;;;0.80;0.80;;;;;;;15.74;56.22;100488.33;2221822;78;21038;-81
2021/05/28 10:47:59;;;;;;;1.50;1.40;;;;;;;15.61;54.68;100480.48;2235919;77;21091;-73
2021/05/28 10:51:00;;;;;;;1.85;1.67;;;;;;;15.47;55.04;100483.52;2240377;77;21097;-73
2021/05/28 10:54:09;;;;;;;1.72;1.40;;;;;;;15.48;55.57;100485.68;2251583;77;20998;-74
2021/05/28 10:57:30;;;;;;;1.52;1.35;;;;;;;15.54;55.54;100484.95;2235612;78;21125;-73
2021/05/28 11:00:33;;;;;;;2.30;1.75;;;;;;;15.57;55.89;100489.91;2237040;77;21526;-75
2021/05/28 11:03:46;;;;;;;2.05;1.85;;;;;;;15.71;56.02;100480.69;2238705;77;21039;-75
2021/05/28 11:07:05;;;;;;;2.10;1.82;;;;;;;15.82;55.96;100487.69;2192625;80;21778;-73
2021/05/28 11:10:23;;;;;;;1.55;1.45;;;;;;;16.01;55.85;100488.89;2221190;78;21073;-78
2021/05/28 11:13:25;;;;;;;2.12;1.92;;;;;;;16.14;55.59;100470.27;2173677;79;21105;-75
2021/05/28 11:16:27;;;;;;;3.55;2.02;;;;;;;16.25;55.76;100471.59;2234584;78;21036;-75
2021/05/28 11:19:34;;;;;;;1.95;1.75;;;;;;;16.44;55.84;100464.69;2236604;78;21071;-80
2021/05/28 11:22:40;;;;;;;2.40;2.20;;;;;;;16.71;55.52;100459.49;2229817;78;21557;-80
2021/05/28 11:25:51;;;;;;;3.33;2.75;;;;;;;17.01;55.82;100461.42;2233351;78;21575;-87
2021/05/28 11:28:57;;;;;;;;;;;;;;;17.24;55.30;100458.39;2234335;78;21570;-74
2021/05/28 11:32:01;;;;;;;2.70;2.42;;;;;;;17.42;55.49;100457.29;2231704;78;20281;-75
2021/05/28 11:35:23;;;;;;;3.85;3.00;;;;;;;17.54;54.73;100451.33;2232484;78;20984;-75
2021/05/28 11:38:39;;;;;;;3.47;2.60;;;;;;;17.61;54.84;100444.95;2233775;78;21040;-84
2021/05/28 11:42:01;;;;;;;3.12;2.40;;;;;;;17.80;54.42;100443.34;2173870;80;21521;-76
2021/05/28 11:45:04;;;;;;;2.98;2.40;;;;;;;17.92;54.49;100443.55;2220685;78;21188;-75
2021/05/28 11:48:14;;;;;;;3.70;2.40;;;;;;;17.92;54.17;100438.17;2172356;80;21079;-77
2021/05/28 11:51:17;;;;;;;2.17;1.60;;;;;;;17.77;53.78;100445.07;2230638;78;21073;-75
2021/05/28 11:54:31;;;;;;;3.60;1.90;;;;;;;17.64;52.71;100437.00;2233214;78;21168;-77
2021/05/28 11:57:33;;;;;;;3.95;1.90;;;;;;;17.55;52.76;100439.58;2231926;78;21063;-79
2021/05/28 12:00:34;;;;;;;2.05;1.80;;;;;;;17.97;52.71;100432.20;2184151;80;20998;-75
2021/05/28 12:03:36;;;;;;;2.62;1.90;;;;;;;17.97;52.33;100434.36;2235974;77;21016;-76
2021/05/28 12:06:37;;;;;;;1.30;1.22;;;;;;;18.06;52.42;100429.60;2234823;78;21392;-76
2021/05/28 12:10:06;;;;;;;2.37;1.50;;;;;;;18.26;50.25;100427.70;2238692;78;20967;-79
2021/05/28 12:13:11;;;;;;;1.40;1.30;;;;;;;18.35;50.28;100427.78;2273901;77;20987;-71
2021/05/28 12:16:17;;;;;;;2.77;1.60;;;;;;;18.62;49.89;100435.78;2272307;77;21035;-76
2021/05/28 12:19:18;;;;;;;3.00;1.80;;;;;;;18.74;49.55;100423.87;2276374;77;21024;-72
2021/05/28 12:22:20;;;;;;;2.37;1.70;;;;;;;18.83;49.56;100420.43;2275395;77;21040;-74
2021/05/28 12:25:21;;;;;;;1.40;1.12;;;;;;;18.60;49.26;100427.09;2272259;77;21004;-74
2021/05/28 12:28:30;;;;;;;1.32;1.22;;;;;;;18.17;47.44;100430.83;2270052;77;21078;-73
2021/05/28 12:31:35;;;;;;;3.73;1.70;;;;;;;17.96;49.45;100424.63;2268383;77;20991;-74
2021/05/28 12:34:36;;;;;;;1.90;1.80;;;;;;;17.96;49.45;100424.63;2266584;77;21608;-86
2021/05/28 12:37:40;;;;;;;2.70;1.50;;;;;;;18.29;50.68;100421.91;2221781;78;21011;-75
2021/05/28 12:40:46;;;;;;;4.42;2.00;;;;;;;18.71;49.36;100425.09;2227618;78;21689;-76
2021/05/28 12:43:51;;;;;;;2.20;2.00;;;;;;;18.94;49.42;100423.80;2223292;78;21143;-76
2021/05/28 12:46:58;;;;;;;5.25;2.47;;;;;;;19.05;49.36;100429.84;2235930;78;21085;-77
2021/05/28 12:49:59;;;;;;;3.67;1.95;;;;;;;18.87;48.80;100427.87;2234640;78;21414;-78
2021/05/28 12:53:22;;;;;;;2.37;2.20;;;;;;;18.50;49.41;100434.77;2235002;78;20975;-75
2021/05/28 12:56:27;;;;;;;2.02;1.87;;;;;;;18.28;49.25;100438.25;2238839;77;21163;-76
2021/05/28 12:59:31;;;;;;;2.92;2.47;;;;;;;17.71;49.40;100443.22;2229387;78;21613;-81
2021/05/28 13:02:35;;;;;;;5.37;2.47;;;;;;;17.24;50.16;100454.37;2230044;78;21086;-77
2021/05/28 13:05:37;;;;;;;1.87;1.77;;;;;;;16.92;50.95;100460.77;2274630;76;22247;-76
2021/05/28 13:08:39;;;;;;;3.42;1.75;;;;;;;16.68;51.47;100466.59;2255106;77;21608;-76
2021/05/28 13:12:00;;;;;;;3.42;1.95;;;;;;;16.47;52.21;100471.02;2241001;78;21019;-80
2021/05/28 13:15:02;;;;;;;3.90;2.20;;;;;;;16.42;52.88;100469.95;2272495;77;21025;-76
2021/05/28 13:18:03;;;;;;;1.85;1.75;;;;;;;16.52;54.15;100472.56;2274870;77;21155;-75
2021/05/28 13:21:22;;;;;;;1.20;1.10;;;;;;;16.65;54.11;100468.33;2271993;77;21042;-75
2021/05/28 13:24:41;;;;;;;2.05;1.50;;;;;;;16.39;53.82;100476.52;2200795;77;21105;-74
2021/05/28 13:27:49;;;;;;;2.27;1.60;;;;;;;16.04;54.43;100477.80;2241201;78;21621;-81
2021/05/28 13:30:54;;;;;;;1.62;1.52;;;;;;;15.86;55.73;100469.42;2269146;77;21624;-76
2021/05/28 13:33:55;;;;;;;2.00;1.80;;;;;;;15.79;55.84;100471.20;2272528;77;21588;-75
2021/05/28 13:36:57;;;;;;;1.92;1.72;;;;;;;15.78;56.20;100465.03;2270822;77;21018;-74
2021/05/28 13:39:58;;;;;;;1.65;1.55;;;;;;;15.74;56.13;100466.93;2268467;77;21824;-74
2021/05/28 13:42:59;;;;;;;1.77;1.60;;;;;;;15.70;56.68;100466.49;2272482;77;21136;-73
2021/05/28 13:46:01;;;;;;;3.75;1.60;;;;;;;15.61;56.81;100464.42;2273528;77;20991;-76
2021/05/28 13:49:05;;;;;;;4.17;1.47;;;;;;;15.46;57.78;100471.70;2234847;78;21044;-78
2021/05/28 13:52:06;;;;;;;1.60;1.50;;;;;;;15.29;57.94;100467.09;2240570;78;21058;-72
2021/05/28 13:55:10;;;;;;;2.37;2.17;;;;;;;15.10;59.36;100470.37;2240445;78;20975;-75
2021/05/28 13:58:12;;;;;;;2.33;2.10;;;;;;;15.18;59.92;100469.74;2238511;78;21133;-78
2021/05/28 14:01:13;;;;;;;3.00;2.00;;;;;;;15.56;60.76;100466.84;2235244;78;21034;-76
2021/05/28 14:04:15;;;;;;;1.70;1.60;;;;;;;15.97;60.27;100478.27;2241317;78;21026;-74
2021/05/28 14:07:18;;;;;;;2.77;2.25;;;;;;;16.23;59.06;100472.80;2232806;78;21070;-72
2021/05/28 14:10:20;;;;;;;4.75;2.22;;;;;;;16.28;59.29;100477.89;2211196;79;21555;-74
2021/05/28 14:13:21;;;;;;;2.37;1.50;;;;;;;16.05;59.01;100484.82;2195982;78;21044;-76
2021/05/28 14:16:23;;;;;;;1.98;1.52;;;;;;;15.89;58.21;100483.23;2221746;78;21019;-72